sensor_id;sensor_type;location;lat;lon;timestamp;pressure;altitude;pressure_sealevel;temperature
64947;BMP280;51469;52.150;4.682;2023-02-11T00:00:29;103632.03;;;15.13
64947;BMP280;51469;52.150;4.682;2023-02-11T00:02:55;103633.22;;;15.03
64947;BMP280;51469;52.150;4.682;2023-02-11T00:05:20;103630.94;;;15.05
64947;BMP280;51469;52.150;4.682;2023-02-11T00:07:45;103638.13;;;15.06
64947;BMP280;51469;52.150;4.682;2023-02-11T00:10:11;103627.16;;;15.09
64947;BMP280;51469;52.150;4.682;2023-02-11T00:12:37;103627.31;;;15.13
64947;BMP280;51469;52.150;4.682;2023-02-11T00:15:03;103621.06;;;15.16
64947;BMP280;51469;52.150;4.682;2023-02-11T00:17:29;103618.78;;;15.18
64947;BMP280;51469;52.150;4.682;2023-02-11T00:19:54;103624.19;;;15.14
64947;BMP280;51469;52.150;4.682;2023-02-11T00:22:20;103616.00;;;15.06
64947;BMP280;51469;52.150;4.682;2023-02-11T00:24:45;103616.91;;;15.10
64947;BMP280;51469;52.150;4.682;2023-02-11T00:27:10;103606.06;;;15.05
64947;BMP280;51469;52.150;4.682;2023-02-11T00:29:37;103615.72;;;14.99
64947;BMP280;51469;52.150;4.682;2023-02-11T00:32:02;103599.66;;;15.13
64947;BMP280;51469;52.150;4.682;2023-02-11T00:34:32;103594.13;;;15.13
64947;BMP280;51469;52.150;4.682;2023-02-11T00:36:58;103591.13;;;15.18
64947;BMP280;51469;52.150;4.682;2023-02-11T00:39:23;103594.34;;;15.08
64947;BMP280;51469;52.150;4.682;2023-02-11T00:41:48;103607.94;;;15.13
64947;BMP280;51469;52.150;4.682;2023-02-11T00:44:14;103614.34;;;15.05
64947;BMP280;51469;52.150;4.682;2023-02-11T00:46:39;103619.00;;;15.13
64947;BMP280;51469;52.150;4.682;2023-02-11T00:49:04;103621.06;;;15.16
64947;BMP280;51469;52.150;4.682;2023-02-11T00:51:30;103615.53;;;15.16
64947;BMP280;51469;52.150;4.682;2023-02-11T00:53:55;103610.47;;;15.06
64947;BMP280;51469;52.150;4.682;2023-02-11T00:56:20;103623.19;;;15.19
64947;BMP280;51469;52.150;4.682;2023-02-11T00:58:46;103631.22;;;15.12
64947;BMP280;51469;52.150;4.682;2023-02-11T01:01:11;103632.03;;;15.13
64947;BMP280;51469;52.150;4.682;2023-02-11T01:03:37;103615.28;;;14.97
64947;BMP280;51469;52.150;4.682;2023-02-11T01:06:04;103611.81;;;15.00
64947;BMP280;51469;52.150;4.682;2023-02-11T01:08:30;103601.69;;;15.04
64947;BMP280;51469;52.150;4.682;2023-02-11T01:11:01;103597.75;;;15.05
64947;BMP280;51469;52.150;4.682;2023-02-11T01:13:28;103601.91;;;14.99
64947;BMP280;51469;52.150;4.682;2023-02-11T01:15:54;103595.75;;;14.93
64947;BMP280;51469;52.150;4.682;2023-02-11T01:18:20;103602.81;;;14.91
64947;BMP280;51469;52.150;4.682;2023-02-11T01:20:45;103601.56;;;14.80
64947;BMP280;51469;52.150;4.682;2023-02-11T01:23:10;103604.69;;;14.78
64947;BMP280;51469;52.150;4.682;2023-02-11T01:25:36;103591.41;;;14.72
64947;BMP280;51469;52.150;4.682;2023-02-11T01:28:01;103590.91;;;14.70
64947;BMP280;51469;52.150;4.682;2023-02-11T01:30:27;103562.03;;;14.47
64947;BMP280;51469;52.150;4.682;2023-02-11T01:32:52;103571.13;;;14.47
64947;BMP280;51469;52.150;4.682;2023-02-11T01:35:17;103576.22;;;14.37
64947;BMP280;51469;52.150;4.682;2023-02-11T01:37:43;103575.44;;;14.36
64947;BMP280;51469;52.150;4.682;2023-02-11T01:40:16;103580.16;;;14.36
64947;BMP280;51469;52.150;4.682;2023-02-11T01:42:42;103578.34;;;14.40
64947;BMP280;51469;52.150;4.682;2023-02-11T01:48:14;103593.31;;;14.39
64947;BMP280;51469;52.150;4.682;2023-02-11T01:50:43;103593.88;;;14.24
64947;BMP280;51469;52.150;4.682;2023-02-11T01:53:11;103594.56;;;14.21
64947;BMP280;51469;52.150;4.682;2023-02-11T01:55:56;103590.19;;;14.20
64947;BMP280;51469;52.150;4.682;2023-02-11T01:58:42;103592.78;;;14.16
64947;BMP280;51469;52.150;4.682;2023-02-11T02:01:10;103594.41;;;14.17
64947;BMP280;51469;52.150;4.682;2023-02-11T02:03:38;103588.09;;;14.17
64947;BMP280;51469;52.150;4.682;2023-02-11T02:06:09;103575.56;;;14.19
64947;BMP280;51469;52.150;4.682;2023-02-11T02:11:02;103571.25;;;14.10
64947;BMP280;51469;52.150;4.682;2023-02-11T02:13:30;103566.91;;;14.00
64947;BMP280;51469;52.150;4.682;2023-02-11T02:16:09;103567.44;;;13.94
64947;BMP280;51469;52.150;4.682;2023-02-11T02:33:07;103611.19;;;13.75
64947;BMP280;51469;52.150;4.682;2023-02-11T02:35:46;103604.41;;;13.64
64947;BMP280;51469;52.150;4.682;2023-02-11T02:38:18;103609.94;;;13.64
64947;BMP280;51469;52.150;4.682;2023-02-11T02:40:52;103601.66;;;13.55
64947;BMP280;51469;52.150;4.682;2023-02-11T02:43:20;103597.16;;;13.59
64947;BMP280;51469;52.150;4.682;2023-02-11T02:45:46;103586.41;;;13.58
64947;BMP280;51469;52.150;4.682;2023-02-11T02:48:26;103579.28;;;13.57
64947;BMP280;51469;52.150;4.682;2023-02-11T02:51:03;103578.31;;;13.53
64947;BMP280;51469;52.150;4.682;2023-02-11T03:04:43;103583.38;;;13.51
64947;BMP280;51469;52.150;4.682;2023-02-11T03:10:04;103585.50;;;13.37
64947;BMP280;51469;52.150;4.682;2023-02-11T03:12:32;103573.03;;;13.39
64947;BMP280;51469;52.150;4.682;2023-02-11T03:15:00;103576.56;;;13.40
64947;BMP280;51469;52.150;4.682;2023-02-11T03:17:27;103577.56;;;13.35
64947;BMP280;51469;52.150;4.682;2023-02-11T03:19:54;103579.03;;;13.33
64947;BMP280;51469;52.150;4.682;2023-02-11T03:22:25;103581.97;;;13.28
64947;BMP280;51469;52.150;4.682;2023-02-11T03:24:52;103579.91;;;13.16
64947;BMP280;51469;52.150;4.682;2023-02-11T03:27:23;103573.69;;;13.28
64947;BMP280;51469;52.150;4.682;2023-02-11T03:30:04;103570.44;;;13.34
64947;BMP280;51469;52.150;4.682;2023-02-11T03:32:44;103570.44;;;13.34
64947;BMP280;51469;52.150;4.682;2023-02-11T03:36:02;103571.88;;;13.32
64947;BMP280;51469;52.150;4.682;2023-02-11T03:38:21;103566.53;;;13.35
64947;BMP280;51469;52.150;4.682;2023-02-11T03:40:48;103564.75;;;13.31
64947;BMP280;51469;52.150;4.682;2023-02-11T03:43:20;103568.19;;;13.36
64947;BMP280;51469;52.150;4.682;2023-02-11T03:45:48;103565.72;;;13.35
64947;BMP280;51469;52.150;4.682;2023-02-11T03:48:19;103569.13;;;13.40
64947;BMP280;51469;52.150;4.682;2023-02-11T03:50:47;103564.25;;;13.37
64947;BMP280;51469;52.150;4.682;2023-02-11T03:53:14;103568.47;;;13.35
64947;BMP280;51469;52.150;4.682;2023-02-11T03:55:42;103568.00;;;13.33
64947;BMP280;51469;52.150;4.682;2023-02-11T03:58:08;103564.59;;;13.27
64947;BMP280;51469;52.150;4.682;2023-02-11T04:00:36;103547.88;;;13.24
64947;BMP280;51469;52.150;4.682;2023-02-11T04:03:04;103550.50;;;13.29
64947;BMP280;51469;52.150;4.682;2023-02-11T04:05:29;103549.56;;;13.08
64947;BMP280;51469;52.150;4.682;2023-02-11T04:07:55;103550.69;;;13.15
64947;BMP280;51469;52.150;4.682;2023-02-11T04:10:20;103560.25;;;13.18
64947;BMP280;51469;52.150;4.682;2023-02-11T04:12:45;103556.00;;;13.20
64947;BMP280;51469;52.150;4.682;2023-02-11T04:15:11;103561.38;;;13.17
64947;BMP280;51469;52.150;4.682;2023-02-11T04:17:36;103559.59;;;13.21
64947;BMP280;51469;52.150;4.682;2023-02-11T04:20:03;103555.69;;;13.22
64947;BMP280;51469;52.150;4.682;2023-02-11T04:22:29;103557.16;;;13.19
64947;BMP280;51469;52.150;4.682;2023-02-11T04:24:54;103561.38;;;13.17
64947;BMP280;51469;52.150;4.682;2023-02-11T04:27:19;103562.84;;;13.23
64947;BMP280;51469;52.150;4.682;2023-02-11T04:29:45;103564.94;;;13.26
64947;BMP280;51469;52.150;4.682;2023-02-11T04:32:10;103564.44;;;13.32
64947;BMP280;51469;52.150;4.682;2023-02-11T04:34:36;103565.22;;;13.41
64947;BMP280;51469;52.150;4.682;2023-02-11T04:37:01;103555.13;;;13.45
64947;BMP280;51469;52.150;4.682;2023-02-11T04:39:27;103551.13;;;13.43
64947;BMP280;51469;52.150;4.682;2023-02-11T04:41:52;103546.34;;;13.52
64947;BMP280;51469;52.150;4.682;2023-02-11T04:44:18;103543.72;;;13.55
64947;BMP280;51469;52.150;4.682;2023-02-11T04:46:43;103551.03;;;13.60
64947;BMP280;51469;52.150;4.682;2023-02-11T04:49:12;103552.00;;;13.64
64947;BMP280;51469;52.150;4.682;2023-02-11T04:51:37;103544.81;;;13.71
64947;BMP280;51469;52.150;4.682;2023-02-11T04:54:03;103540.75;;;13.77
64947;BMP280;51469;52.150;4.682;2023-02-11T04:56:28;103545.75;;;13.84
64947;BMP280;51469;52.150;4.682;2023-02-11T04:58:53;103548.00;;;13.82
64947;BMP280;51469;52.150;4.682;2023-02-11T05:01:19;103551.88;;;13.81
64947;BMP280;51469;52.150;4.682;2023-02-11T05:03:44;103553.38;;;13.78
64947;BMP280;51469;52.150;4.682;2023-02-11T05:06:10;103560.00;;;13.86
64947;BMP280;51469;52.150;4.682;2023-02-11T05:08:35;103555.09;;;13.91
64947;BMP280;51469;52.150;4.682;2023-02-11T05:11:01;103564.69;;;13.94
64947;BMP280;51469;52.150;4.682;2023-02-11T05:13:27;103569.03;;;13.95
64947;BMP280;51469;52.150;4.682;2023-02-11T05:15:53;103572.31;;;13.97
64947;BMP280;51469;52.150;4.682;2023-02-11T05:18:20;103575.91;;;13.89
64947;BMP280;51469;52.150;4.682;2023-02-11T05:20:46;103578.00;;;13.92
64947;BMP280;51469;52.150;4.682;2023-02-11T05:23:11;103580.91;;;13.95
64947;BMP280;51469;52.150;4.682;2023-02-11T05:25:37;103584.66;;;13.91
64947;BMP280;51469;52.150;4.682;2023-02-11T05:28:03;103583.03;;;13.90
64947;BMP280;51469;52.150;4.682;2023-02-11T05:30:29;103581.44;;;13.89
64947;BMP280;51469;52.150;4.682;2023-02-11T05:32:55;103579.94;;;13.91
64947;BMP280;51469;52.150;4.682;2023-02-11T05:35:21;103582.34;;;13.93
64947;BMP280;51469;52.150;4.682;2023-02-11T05:37:46;103580.59;;;13.97
64947;BMP280;51469;52.150;4.682;2023-02-11T05:40:12;103575.38;;;13.95
64947;BMP280;51469;52.150;4.682;2023-02-11T05:42:37;103587.88;;;13.93
64947;BMP280;51469;52.150;4.682;2023-02-11T05:45:03;103581.03;;;13.99
64947;BMP280;51469;52.150;4.682;2023-02-11T05:47:28;103584.97;;;13.98
64947;BMP280;51469;52.150;4.682;2023-02-11T05:49:54;103581.31;;;14.06
64947;BMP280;51469;52.150;4.682;2023-02-11T05:52:20;103585.53;;;14.12
64947;BMP280;51469;52.150;4.682;2023-02-11T05:54:45;103580.00;;;14.12
64947;BMP280;51469;52.150;4.682;2023-02-11T05:57:11;103581.91;;;14.20
64947;BMP280;51469;52.150;4.682;2023-02-11T05:59:37;103587.91;;;14.22
64947;BMP280;51469;52.150;4.682;2023-02-11T06:02:02;103586.06;;;14.26
64947;BMP280;51469;52.150;4.682;2023-02-11T06:04:28;103582.97;;;14.27
64947;BMP280;51469;52.150;4.682;2023-02-11T06:06:53;103586.38;;;14.33
64947;BMP280;51469;52.150;4.682;2023-02-11T06:09:18;103584.72;;;14.32
64947;BMP280;51469;52.150;4.682;2023-02-11T06:11:44;103576.50;;;14.23
64947;BMP280;51469;52.150;4.682;2023-02-11T06:14:09;103579.19;;;14.32
64947;BMP280;51469;52.150;4.682;2023-02-11T06:16:35;103582.59;;;14.37
64947;BMP280;51469;52.150;4.682;2023-02-11T06:19:01;103582.25;;;14.39
64947;BMP280;51469;52.150;4.682;2023-02-11T06:21:26;103590.06;;;14.37
64947;BMP280;51469;52.150;4.682;2023-02-11T06:23:52;103576.66;;;14.47
64947;BMP280;51469;52.150;4.682;2023-02-11T06:26:19;103575.63;;;14.52
64947;BMP280;51469;52.150;4.682;2023-02-11T06:28:45;103573.41;;;14.45
64947;BMP280;51469;52.150;4.682;2023-02-11T06:31:10;103578.38;;;14.52
64947;BMP280;51469;52.150;4.682;2023-02-11T06:33:36;103574.44;;;14.62
64947;BMP280;51469;52.150;4.682;2023-02-11T06:36:04;103584.19;;;14.59
64947;BMP280;51469;52.150;4.682;2023-02-11T06:38:29;103584.47;;;14.66
64947;BMP280;51469;52.150;4.682;2023-02-11T06:40:55;103580.56;;;14.67
64947;BMP280;51469;52.150;4.682;2023-02-11T06:43:20;103585.75;;;14.68
64947;BMP280;51469;52.150;4.682;2023-02-11T06:45:51;103587.31;;;14.78
64947;BMP280;51469;52.150;4.682;2023-02-11T06:48:17;103580.69;;;14.70
64947;BMP280;51469;52.150;4.682;2023-02-11T06:50:42;103583.13;;;14.72
64947;BMP280;51469;52.150;4.682;2023-02-11T06:53:07;103583.00;;;14.68
64947;BMP280;51469;52.150;4.682;2023-02-11T06:55:33;103586.63;;;14.81
64947;BMP280;51469;52.150;4.682;2023-02-11T06:57:59;103587.31;;;14.78
64947;BMP280;51469;52.150;4.682;2023-02-11T07:00:24;103592.84;;;14.78
64947;BMP280;51469;52.150;4.682;2023-02-11T07:02:50;103602.38;;;14.80
64947;BMP280;51469;52.150;4.682;2023-02-11T07:05:16;103602.13;;;14.94
64947;BMP280;51469;52.150;4.682;2023-02-11T07:07:41;103602.38;;;15.01
64947;BMP280;51469;52.150;4.682;2023-02-11T07:10:07;103597.28;;;14.91
64947;BMP280;51469;52.150;4.682;2023-02-11T07:12:33;103595.22;;;15.00
64947;BMP280;51469;52.150;4.682;2023-02-11T07:14:58;103602.16;;;15.06
64947;BMP280;51469;52.150;4.682;2023-02-11T07:17:23;103601.28;;;14.93
64947;BMP280;51469;52.150;4.682;2023-02-11T07:19:49;103603.03;;;14.98
64947;BMP280;51469;52.150;4.682;2023-02-11T07:22:14;103602.13;;;14.94
64947;BMP280;51469;52.150;4.682;2023-02-11T07:24:40;103616.22;;;15.01
64947;BMP280;51469;52.150;4.682;2023-02-11T07:27:05;103613.03;;;15.11
64947;BMP280;51469;52.150;4.682;2023-02-11T07:29:31;103617.72;;;15.11
64947;BMP280;51469;52.150;4.682;2023-02-11T07:31:57;103622.44;;;15.10
64947;BMP280;51469;52.150;4.682;2023-02-11T07:34:23;103618.28;;;15.04
64947;BMP280;51469;52.150;4.682;2023-02-11T07:36:48;103630.13;;;15.04
64947;BMP280;51469;52.150;4.682;2023-02-11T07:39:13;103624.09;;;15.11
64947;BMP280;51469;52.150;4.682;2023-02-11T07:41:39;103624.31;;;15.18
64947;BMP280;51469;52.150;4.682;2023-02-11T07:44:05;103622.72;;;15.17
64947;BMP280;51469;52.150;4.682;2023-02-11T07:46:31;103625.47;;;15.17
64947;BMP280;51469;52.150;4.682;2023-02-11T07:48:56;103619.72;;;15.22
64947;BMP280;51469;52.150;4.682;2023-02-11T07:51:25;103627.13;;;15.30
64947;BMP280;51469;52.150;4.682;2023-02-11T07:53:51;103625.00;;;15.15
64947;BMP280;51469;52.150;4.682;2023-02-11T07:56:17;103626.19;;;15.26
64947;BMP280;51469;52.150;4.682;2023-02-11T07:58:43;103628.28;;;15.29
64947;BMP280;51469;52.150;4.682;2023-02-11T08:01:12;103627.38;;;15.37
64947;BMP280;51469;52.150;4.682;2023-02-11T08:03:38;103635.22;;;15.35
64947;BMP280;51469;52.150;4.682;2023-02-11T08:06:11;103629.25;;;15.45
64947;BMP280;51469;52.150;4.682;2023-02-11T08:08:38;103627.88;;;15.51
64947;BMP280;51469;52.150;4.682;2023-02-11T08:11:07;103632.06;;;15.57
64947;BMP280;51469;52.150;4.682;2023-02-11T08:13:35;103632.97;;;15.61
64947;BMP280;51469;52.150;4.682;2023-02-11T08:16:01;103637.09;;;15.67
64947;BMP280;51469;52.150;4.682;2023-02-11T08:18:26;103637.78;;;15.64
64947;BMP280;51469;52.150;4.682;2023-02-11T08:20:52;103648.06;;;15.64
64947;BMP280;51469;52.150;4.682;2023-02-11T08:23:17;103654.19;;;15.57
64947;BMP280;51469;52.150;4.682;2023-02-11T08:25:43;103653.59;;;15.64
64947;BMP280;51469;52.150;4.682;2023-02-11T08:28:08;103652.09;;;15.66
64947;BMP280;51469;52.150;4.682;2023-02-11T08:30:34;103669.88;;;15.77
64947;BMP280;51469;52.150;4.682;2023-02-11T08:32:59;103645.19;;;15.72
64947;BMP280;51469;52.150;4.682;2023-02-11T08:35:25;103670.81;;;15.81
64947;BMP280;51469;52.150;4.682;2023-02-11T08:37:51;103672.53;;;15.86
64947;BMP280;51469;52.150;4.682;2023-02-11T08:40:17;103665.53;;;15.88
64947;BMP280;51469;52.150;4.682;2023-02-11T08:42:42;103669.69;;;15.94
64947;BMP280;51469;52.150;4.682;2023-02-11T08:45:08;103667.81;;;15.86
64947;BMP280;51469;52.150;4.682;2023-02-11T08:47:35;103677.78;;;15.99
64947;BMP280;51469;52.150;4.682;2023-02-11T08:50:00;103679.38;;;15.88
64947;BMP280;51469;52.150;4.682;2023-02-11T08:52:26;103675.91;;;15.91
64947;BMP280;51469;52.150;4.682;2023-02-11T08:54:51;103676.16;;;15.98
64947;BMP280;51469;52.150;4.682;2023-02-11T08:57:16;103671.88;;;16.13
64947;BMP280;51469;52.150;4.682;2023-02-11T08:59:42;103678.91;;;16.22
64947;BMP280;51469;52.150;4.682;2023-02-11T09:02:11;103676.72;;;16.28
64947;BMP280;51469;52.150;4.682;2023-02-11T09:04:36;103685.59;;;16.33
64947;BMP280;51469;52.150;4.682;2023-02-11T09:07:02;103680.28;;;16.28
64947;BMP280;51469;52.150;4.682;2023-02-11T09:09:27;103686.38;;;16.22
64947;BMP280;51469;52.150;4.682;2023-02-11T09:11:53;103680.53;;;16.35
64947;BMP280;51469;52.150;4.682;2023-02-11T09:14:22;103684.56;;;16.38
64947;BMP280;51469;52.150;4.682;2023-02-11T09:16:48;103686.72;;;16.56
64947;BMP280;51469;52.150;4.682;2023-02-11T09:19:14;103682.50;;;16.74
64947;BMP280;51469;52.150;4.682;2023-02-11T09:21:39;103687.38;;;16.77
64947;BMP280;51469;52.150;4.682;2023-02-11T09:24:05;103690.16;;;16.77
64947;BMP280;51469;52.150;4.682;2023-02-11T09:26:34;103702.88;;;16.66
64947;BMP280;51469;52.150;4.682;2023-02-11T09:29:01;103702.66;;;16.59
64947;BMP280;51469;52.150;4.682;2023-02-11T09:31:29;103704.03;;;16.53
64947;BMP280;51469;52.150;4.682;2023-02-11T09:33:57;103715.25;;;16.57
64947;BMP280;51469;52.150;4.682;2023-02-11T09:36:27;103701.50;;;16.60
64947;BMP280;51469;52.150;4.682;2023-02-11T09:38:53;103706.38;;;16.51
64947;BMP280;51469;52.150;4.682;2023-02-11T09:43:50;103702.78;;;16.51
64947;BMP280;51469;52.150;4.682;2023-02-11T09:46:16;103707.03;;;16.60
64947;BMP280;51469;52.150;4.682;2023-02-11T09:48:46;103701.75;;;16.55
64947;BMP280;51469;52.150;4.682;2023-02-11T09:51:37;103702.72;;;16.63
64947;BMP280;51469;52.150;4.682;2023-02-11T09:54:10;103701.03;;;16.58
64947;BMP280;51469;52.150;4.682;2023-02-11T09:56:36;103708.41;;;16.66
64947;BMP280;51469;52.150;4.682;2023-02-11T09:59:03;103723.91;;;16.55
64947;BMP280;51469;52.150;4.682;2023-02-11T10:04:23;103727.13;;;16.57
64947;BMP280;51469;52.150;4.682;2023-02-11T10:06:55;103727.81;;;16.66
64947;BMP280;51469;52.150;4.682;2023-02-11T10:18:45;103748.31;;;17.01
64947;BMP280;51469;52.150;4.682;2023-02-11T10:23:59;103742.84;;;17.32
64947;BMP280;51469;52.150;4.682;2023-02-11T10:26:35;103749.34;;;17.36
64947;BMP280;51469;52.150;4.682;2023-02-11T10:29:30;103757.19;;;17.34
64947;BMP280;51469;52.150;4.682;2023-02-11T10:31:52;103750.94;;;17.37
64947;BMP280;51469;52.150;4.682;2023-02-11T10:34:18;103765.88;;;17.60
64947;BMP280;51469;52.150;4.682;2023-02-11T10:36:44;103761.00;;;17.57
64947;BMP280;51469;52.150;4.682;2023-02-11T10:41:45;103769.31;;;17.69
64947;BMP280;51469;52.150;4.682;2023-02-11T10:44:30;103764.97;;;17.56
64947;BMP280;51469;52.150;4.682;2023-02-11T10:46:58;103766.78;;;17.64
64947;BMP280;51469;52.150;4.682;2023-02-11T10:49:35;103783.88;;;17.38
64947;BMP280;51469;52.150;4.682;2023-02-11T10:55:04;103782.53;;;17.60
64947;BMP280;51469;52.150;4.682;2023-02-11T10:57:40;103783.78;;;17.63
64947;BMP280;51469;52.150;4.682;2023-02-11T11:02:58;103785.06;;;17.65
64947;BMP280;51469;52.150;4.682;2023-02-11T11:07:58;103782.44;;;17.29
64947;BMP280;51469;52.150;4.682;2023-02-11T11:10:34;103788.47;;;17.19
64947;BMP280;51469;52.150;4.682;2023-02-11T11:13:01;103790.03;;;17.32
64947;BMP280;51469;52.150;4.682;2023-02-11T11:15:29;103783.44;;;17.37
64947;BMP280;51469;52.150;4.682;2023-02-11T11:18:16;103788.47;;;17.19
64947;BMP280;51469;52.150;4.682;2023-02-11T11:20:57;103787.59;;;17.15
64947;BMP280;51469;52.150;4.682;2023-02-11T11:23:24;103797.53;;;17.04
64947;BMP280;51469;52.150;4.682;2023-02-11T11:28:39;103792.22;;;17.11
64947;BMP280;51469;52.150;4.682;2023-02-11T11:31:13;103797.72;;;17.23
64947;BMP280;51469;52.150;4.682;2023-02-11T11:33:42;103797.88;;;17.15
64947;BMP280;51469;52.150;4.682;2023-02-11T11:36:10;103793.53;;;17.29
64947;BMP280;51469;52.150;4.682;2023-02-11T11:38:44;103795.94;;;17.58
64947;BMP280;51469;52.150;4.682;2023-02-11T11:41:24;103789.63;;;17.73
64947;BMP280;51469;52.150;4.682;2023-02-11T11:46:45;103789.09;;;17.98
64947;BMP280;51469;52.150;4.682;2023-02-11T11:49:21;103796.91;;;17.93
64947;BMP280;51469;52.150;4.682;2023-02-11T11:54:46;103797.25;;;17.76
64947;BMP280;51469;52.150;4.682;2023-02-11T11:57:15;103794.75;;;17.71
64947;BMP280;51469;52.150;4.682;2023-02-11T11:59:41;103795.63;;;17.75
64947;BMP280;51469;52.150;4.682;2023-02-11T12:03:00;103795.09;;;17.85
64947;BMP280;51469;52.150;4.682;2023-02-11T12:05:36;103793.09;;;17.70
64947;BMP280;51469;52.150;4.682;2023-02-11T12:08:33;103797.53;;;17.86
64947;BMP280;51469;52.150;4.682;2023-02-11T12:11:14;103797.25;;;17.76
64947;BMP280;51469;52.150;4.682;2023-02-11T12:14:37;103788.47;;;17.74
64947;BMP280;51469;52.150;4.682;2023-02-11T12:17:13;103798.34;;;17.87
64947;BMP280;51469;52.150;4.682;2023-02-11T12:19:46;103801.38;;;17.82
64947;BMP280;51469;52.150;4.682;2023-02-11T12:27:55;103781.94;;;17.82
64947;BMP280;51469;52.150;4.682;2023-02-11T12:30:47;103785.97;;;18.00
64947;BMP280;51469;52.150;4.682;2023-02-11T12:36:28;103794.06;;;18.05
64947;BMP280;51469;52.150;4.682;2023-02-11T12:44:51;103808.22;;;18.00
64947;BMP280;51469;52.150;4.682;2023-02-11T12:50:26;103806.94;;;18.13
64947;BMP280;51469;52.150;4.682;2023-02-11T12:53:25;103798.69;;;18.01
64947;BMP280;51469;52.150;4.682;2023-02-11T12:55:58;103791.63;;;18.19
64947;BMP280;51469;52.150;4.682;2023-02-11T12:58:26;103797.44;;;18.14
64947;BMP280;51469;52.150;4.682;2023-02-11T13:00:59;103792.16;;;18.09
64947;BMP280;51469;52.150;4.682;2023-02-11T13:03:50;103791.53;;;18.00
64947;BMP280;51469;52.150;4.682;2023-02-11T13:06:24;103787.75;;;18.08
64947;BMP280;51469;52.150;4.682;2023-02-11T13:08:57;103791.63;;;18.03
64947;BMP280;51469;52.150;4.682;2023-02-11T13:11:27;103795.09;;;17.85
64947;BMP280;51469;52.150;4.682;2023-02-11T13:22:15;103776.47;;;18.01
64947;BMP280;51469;52.150;4.682;2023-02-11T13:24:45;103782.59;;;18.06
64947;BMP280;51469;52.150;4.682;2023-02-11T13:27:30;103782.03;;;18.01
64947;BMP280;51469;52.150;4.682;2023-02-11T13:35:37;103789.00;;;18.26
64947;BMP280;51469;52.150;4.682;2023-02-11T13:38:04;103777.34;;;18.36
64947;BMP280;51469;52.150;4.682;2023-02-11T13:40:35;103781.13;;;18.28
64947;BMP280;51469;52.150;4.682;2023-02-11T13:43:04;103774.84;;;18.46
64947;BMP280;51469;52.150;4.682;2023-02-11T13:47:57;103765.13;;;18.56
64947;BMP280;51469;52.150;4.682;2023-02-11T13:50:24;103751.13;;;18.37
64947;BMP280;51469;52.150;4.682;2023-02-11T13:53:00;103779.13;;;18.44
64947;BMP280;51469;52.150;4.682;2023-02-11T13:55:26;103766.06;;;18.29
64947;BMP280;51469;52.150;4.682;2023-02-11T14:03:34;103780.63;;;18.07
64947;BMP280;51469;52.150;4.682;2023-02-11T14:06:29;103781.16;;;17.97
64947;BMP280;51469;52.150;4.682;2023-02-11T14:09:36;103779.16;;;18.13
64947;BMP280;51469;52.150;4.682;2023-02-11T14:12:30;103783.53;;;18.14
64947;BMP280;51469;52.150;4.682;2023-02-11T14:17:32;103776.31;;;17.94
64947;BMP280;51469;52.150;4.682;2023-02-11T14:20:00;103776.22;;;17.90
64947;BMP280;51469;52.150;4.682;2023-02-11T14:22:29;103777.56;;;17.81
64947;BMP280;51469;52.150;4.682;2023-02-11T14:25:00;103775.69;;;18.00
64947;BMP280;51469;52.150;4.682;2023-02-11T14:27:27;103784.28;;;17.95
64947;BMP280;51469;52.150;4.682;2023-02-11T14:33:08;103774.13;;;18.03
64947;BMP280;51469;52.150;4.682;2023-02-11T14:41:09;103784.91;;;17.89
64947;BMP280;51469;52.150;4.682;2023-02-11T14:43:39;103784.19;;;17.92
64947;BMP280;51469;52.150;4.682;2023-02-11T14:46:05;103787.75;;;18.08
64947;BMP280;51469;52.150;4.682;2023-02-11T14:48:36;103788.59;;;17.93
64947;BMP280;51469;52.150;4.682;2023-02-11T14:51:07;103788.97;;;17.79
64947;BMP280;51469;52.150;4.682;2023-02-11T14:53:35;103775.75;;;17.88
64947;BMP280;51469;52.150;4.682;2023-02-11T14:56:00;103792.72;;;17.99
64947;BMP280;51469;52.150;4.682;2023-02-11T14:58:30;103794.84;;;17.90
64947;BMP280;51469;52.150;4.682;2023-02-11T15:01:02;103796.72;;;17.86
64947;BMP280;51469;52.150;4.682;2023-02-11T15:03:41;103803.56;;;18.04
64947;BMP280;51469;52.150;4.682;2023-02-11T15:06:17;103804.69;;;18.03
64947;BMP280;51469;52.150;4.682;2023-02-11T15:08:49;103814.75;;;17.92
64947;BMP280;51469;52.150;4.682;2023-02-11T15:11:17;103808.41;;;18.07
64947;BMP280;51469;52.150;4.682;2023-02-11T15:13:43;103808.41;;;18.07
64947;BMP280;51469;52.150;4.682;2023-02-11T15:16:15;103815.91;;;17.91
64947;BMP280;51469;52.150;4.682;2023-02-11T15:18:46;103809.75;;;17.70
64947;BMP280;51469;52.150;4.682;2023-02-11T15:21:22;103815.38;;;17.58
64947;BMP280;51469;52.150;4.682;2023-02-11T15:24:21;103815.34;;;17.42
64947;BMP280;51469;52.150;4.682;2023-02-11T15:27:00;103814.44;;;17.38
64947;BMP280;51469;52.150;4.682;2023-02-11T15:29:35;103808.56;;;17.55
64947;BMP280;51469;52.150;4.682;2023-02-11T15:32:06;103817.84;;;17.60
64947;BMP280;51469;52.150;4.682;2023-02-11T15:34:32;103820.94;;;17.58
64947;BMP280;51469;52.150;4.682;2023-02-11T15:36:58;103817.66;;;17.68
64947;BMP280;51469;52.150;4.682;2023-02-11T15:39:38;103820.44;;;17.68
64947;BMP280;51469;52.150;4.682;2023-02-11T15:42:34;103814.13;;;17.55
64947;BMP280;51469;52.150;4.682;2023-02-11T15:48:13;103811.75;;;17.42
64947;BMP280;51469;52.150;4.682;2023-02-11T15:50:41;103818.75;;;17.36
64947;BMP280;51469;52.150;4.682;2023-02-11T15:53:24;103819.38;;;17.45
64947;BMP280;51469;52.150;4.682;2023-02-11T15:55:54;103822.59;;;17.47
64947;BMP280;51469;52.150;4.682;2023-02-11T15:58:24;103814.09;;;17.40
64947;BMP280;51469;52.150;4.682;2023-02-11T16:00:51;103810.19;;;17.29
64947;BMP280;51469;52.150;4.682;2023-02-11T16:03:25;103819.88;;;17.35
64947;BMP280;51469;52.150;4.682;2023-02-11T16:05:53;103822.50;;;17.16
64947;BMP280;51469;52.150;4.682;2023-02-11T16:08:25;103837.53;;;17.15
64947;BMP280;51469;52.150;4.682;2023-02-11T16:11:01;103828.75;;;17.13
64947;BMP280;51469;52.150;4.682;2023-02-11T16:13:29;103836.38;;;17.16